Lubbock, Texas
Current Conditions -  °F | °C
As of 1:53 AM on Saturday 29 Nov 2014 (Local Time) from KLBB Reporting Station
Clear Clear  
Wind Chill: 44°   Ceiling: Unl
Heat Index: 49°   Visibility: 10mi
Dew Point: 21°   Wind: 14mph
Humidity: 33%   Direction: 240°WSW
Pressure: 29.92"   Gusts: NA
Location:  33.59°N, 101.85°W
Report Text: KLBB 290753Z 24012KT 10SM CLR 09/M06 A2992 RMK AO2 SLP098 T00941061
Loading
Personal Weather Stations






























Interactive Weather Map New forecast layout! Learn more

10-Day Weather Forecast

Advertisements
Track Severe Weather on mobile